Terminal Aerodrome Forecast
Issued by NWS

Home | Current Version | Previous Version | Text Only | Print | Product List | Glossary On
Versions: 1 2 3 4 5 6 7 8 9 10 11 12 13 14 15 16 17 18 19 20 21 22 23 24 25 26
395
FTUS41 KPBZ 132333
TAFAGC
TAF
KAGC 132333Z 1400/1424 29012KT 3SM -SHSN BKN035
     FM140100 29008KT P6SM BKN035
     FM140500 26004KT P6SM SCT035
     FM141500 15005KT P6SM SCT040=

USA.gov is the U.S. government's official web portal to all federal, state and local government web resources and services.